Latest Weather Observations for Cobar

IDN60801

Issued at 4:32 pm EDT Friday 12 February 2016 (issued every 30 minutes, with the page automatically refreshed every 10 minutes)

About weather observations | Map of weather stations | Latest weather observations for NSW | Other Formats
Station Details ID: 048027 Name: COBAR MO Lat: -31.48 Lon: 145.83 Height: 260.0 m
Data from the previous 72 hours. | See also: Recent months at Cobar
Date/Time
EDT
Temp
°C
App
Temp
°C
Dew
Point
Rel
Hum
%
Delta-T
°C
Wind Press
QNH
hPa
Press
MSL
hPa
Rain
since 9 am
mm
Dir
 
Spd
km/h
Gust
km/h
Spd
kts
Gust
kts
12/04:00pm 36.8 31.8 1.4 11 18.3 SSW 17 30 9 16 1010.6 1009.0 0.2
12/03:30pm 36.7 32.6 2.0 11 18.1 S 13 26 7 14 1010.9 1009.3 0.2
12/03:00pm 37.1 34.0 3.4 12 18.0 W 9 24 5 13 1011.3 1009.7 0.2
12/02:30pm 36.3 32.6 2.2 12 17.8 S 11 19 6 10 1011.7 1010.1 0.2
12/02:00pm 35.6 33.0 6.1 16 16.3 WSW 9 17 5 9 1012.1 1010.5 0.2
12/01:30pm 34.8 32.3 6.4 17 15.7 SSW 9 24 5 13 1012.5 1010.9 0.2
12/01:00pm 34.7 32.3 7.1 18 15.4 E 9 15 5 8 1012.9 1011.3 0.2
12/12:30pm 34.3 31.9 7.0 18 15.2 ENE 9 15 5 8 1013.3 1011.7 0.2
12/12:00pm 33.2 31.5 8.2 21 14.1 NNE 7 13 4 7 1013.8 1012.2 0.2
12/11:30am 32.8 30.7 8.3 22 13.8 ESE 9 17 5 9 1014.0 1012.4 0.2
12/11:00am 31.9 29.6 9.0 24 13.0 NE 11 17 6 9 1014.2 1012.6 0.2
12/10:30am 30.7 28.2 9.7 27 12.0 ENE 13 19 7 10 1014.4 1012.8 0.2
12/10:00am 29.5 26.4 10.3 30 11.0 NE 17 22 9 12 1014.3 1012.7 0.0
12/09:30am 28.9 27.1 12.1 35 9.9 NE 13 20 7 11 1014.3 1012.7 0.0
12/09:00am 28.2 25.4 10.0 32 10.3 NE 15 20 8 11 1014.1 1012.5 0.0
12/08:30am 26.4 23.7 10.3 36 9.1 ENE 15 19 8 10 1014.0 1012.4 0.0
12/08:00am 24.5 22.7 10.9 42 7.7 ENE 11 17 6 9 1013.7 1012.1 0.0
12/07:30am 21.6 20.0 11.5 52 5.7 ENE 11 13 6 7 1013.0 1011.4 0.0
12/07:00am 20.2 18.7 11.9 59 4.7 E 11 13 6 7 1012.8 1011.2 0.0
12/06:30am 20.1 19.0 11.9 59 4.6 E 9 11 5 6 1012.6 1011.0 0.0
12/06:00am 20.5 19.4 12.0 58 4.8 E 9 11 5 6 1012.4 1010.8 0.0
12/05:30am 20.8 19.7 12.0 57 5.0 E 9 13 5 7 1012.1 1010.5 0.0
12/05:00am 21.5 20.0 11.8 54 5.5 E 11 15 6 8 1012.0 1010.4 0.0
12/04:30am 22.0 19.7 11.6 51 5.9 E 15 20 8 11 1011.8 1010.2 0.0
12/04:00am 22.0 19.4 12.0 53 5.7 E 17 24 9 13 1011.8 1010.2 0.0
12/03:30am 22.4 19.9 11.2 49 6.3 E 15 26 8 14 1011.9 1010.3 0.0
12/03:00am 21.6 20.5 11.9 54 5.5 NE 9 11 5 6 1011.4 1009.8 0.0
12/02:30am 22.0 20.9 12.0 53 5.7 ENE 9 11 5 6 1011.6 1010.0 0.0
12/02:00am 21.6 20.6 12.3 55 5.3 ENE 9 13 5 7 1012.0 1010.4 0.0
12/01:30am 21.6 21.3 12.7 57 5.1 E 6 9 3 5 1012.5 1010.9 0.0
12/01:00am 22.5 21.5 12.4 52 5.8 E 9 11 5 6 1012.6 1011.0 0.0
12/12:30am 23.0 21.9 11.8 49 6.4 ENE 9 11 5 6 1012.8 1011.2 0.0
12/12:00am 23.0 22.7 11.6 48 6.5 NE 4 9 2 5 1012.8 1011.2 0.0
 
Date/Time
EDT
Temp
°C
App
Temp
°C
Dew
Point
Rel
Hum
%
Delta-T
°C
Wind Press
QNH
hPa
Press
MSL
hPa
Rain
since 9 am
mm
Dir
 
Spd
km/h
Gust
km/h
Spd
kts
Gust
kts
11/11:30pm 24.2 22.9 11.2 44 7.4 N 9 13 5 7 1012.7 1011.1 0.0
11/11:00pm 25.5 22.4 10.2 38 8.6 NNE 17 20 9 11 1012.7 1011.1 0.0
11/10:30pm 25.6 22.6 10.6 39 8.5 NNE 17 24 9 13 1013.1 1011.5 0.0
11/10:00pm 25.9 22.8 10.3 37 8.8 NNE 17 22 9 12 1013.7 1012.1 0.0
11/09:30pm 26.5 23.4 10.2 36 9.2 N 17 26 9 14 1013.7 1012.1 0.0
11/09:00pm 26.8 23.7 10.4 35 9.3 NE 17 22 9 12 1013.6 1012.0 0.0
11/08:30pm 27.6 25.4 10.9 35 9.6 SSE 13 20 7 11 1013.9 1012.3 0.0
11/08:00pm 28.3 25.4 8.1 28 11.1 ESE 13 20 7 11 1013.5 1011.9 0.0
11/07:30pm 29.6 27.1 8.1 26 11.9 S 11 20 6 11 1012.4 1010.8 0.0
11/07:00pm 31.6 27.9 4.5 18 14.3 SSE 13 22 7 12 1010.9 1009.3 0.0
11/06:30pm 33.0 30.6 4.4 16 15.2 SE 6 7 3 4 1010.0 1008.4 0.0
11/06:00pm 33.0 30.5 4.7 17 15.1 ESE 7 13 4 7 1009.7 1008.1 0.0
11/05:30pm 32.8 29.2 5.0 17 14.9 SE 13 19 7 10 1009.8 1008.2 0.0
11/05:00pm 32.6 25.6 5.9 19 14.5 E 32 41 17 22 1010.0 1008.4 0.0
11/04:30pm 32.6 29.1 5.5 18 14.6 S 13 32 7 17 1010.7 1009.1 0.0
11/04:00pm 31.3 27.9 11.2 29 11.8 WNW 20 30 11 16 1010.0 1008.4 0.0
11/03:30pm 30.1 25.1 10.8 30 11.2 W 28 44 15 24 1010.0 1008.4 0.0
11/03:21pm 32.1 28.9 11.2 27 12.3 WSW 19 35 10 19 1009.9 1008.3 0.0
11/03:00pm 37.3 34.1 3.2 12 18.2 NNW 9 20 5 11 1010.0 1008.4 0.0
11/02:30pm 36.2 33.7 5.0 14 17.0 SE 7 13 4 7 1010.7 1009.1 0.0
11/02:00pm 37.2 32.8 4.8 13 17.7 WSW 17 24 9 13 1011.2 1009.6 0.0
11/01:30pm 36.1 31.6 4.4 14 17.1 W 17 26 9 14 1011.7 1010.1 0.0
11/01:00pm 35.6 32.3 4.7 14 16.7 NE 11 20 6 11 1012.0 1010.4 0.0
11/12:30pm 36.0 32.8 6.9 16 16.3 WNW 13 20 7 11 1012.5 1010.9 0.0
11/12:00pm 34.0 30.8 6.7 18 15.1 NNW 13 24 7 13 1012.9 1011.3 0.0
11/11:30am 33.4 30.0 6.1 18 14.9 N 13 24 7 13 1013.1 1011.5 0.0
11/11:00am 33.2 29.7 7.0 19 14.5 NW 15 22 8 12 1013.3 1011.7 0.0
11/10:30am 32.2 28.4 7.5 21 13.7 NNW 17 22 9 12 1013.2 1011.6 0.0
11/10:00am 31.6 28.5 7.3 22 13.4 NW 13 19 7 10 1013.1 1011.5 0.0
11/09:30am 31.6 29.1 8.2 23 13.1 NNW 11 15 6 8 1013.2 1011.6 0.0
11/09:00am 30.3 27.3 7.9 24 12.4 NNW 13 17 7 9 1013.1 1011.5 0.0
11/08:30am 28.6 26.0 7.8 27 11.4 NNW 11 15 6 8 1013.0 1011.4 0.0
11/08:00am 26.6 24.0 7.8 30 10.2 NNW 11 13 6 7 1012.7 1011.1 0.0
11/07:30am 24.6 22.4 7.8 34 9.0 N 9 11 5 6 1012.5 1010.9 0.0
11/07:00am 23.8 21.2 7.9 36 8.5 NNE 11 11 6 6 1012.0 1010.4 0.0
11/06:30am 24.1 21.9 7.9 35 8.7 N 9 11 5 6 1011.6 1010.0 0.0
11/06:00am 24.2 21.6 7.7 34 8.8 NNE 11 13 6 7 1011.4 1009.8 0.0
11/05:30am 24.6 22.5 8.1 35 8.9 N 9 13 5 7 1011.2 1009.6 0.0
11/05:00am 25.1 22.5 7.6 32 9.4 NE 11 15 6 8 1011.0 1009.4 0.0
11/04:30am 25.2 22.1 7.4 32 9.5 NE 13 15 7 8 1010.8 1009.2 0.0
11/04:00am 25.5 22.8 7.4 31 9.7 NNE 11 13 6 7 1010.7 1009.1 0.0
11/03:30am 25.8 22.7 7.3 30 9.9 NNE 13 15 7 8 1010.5 1008.9 0.0
11/03:00am 25.5 22.5 7.7 32 9.6 NNE 13 15 7 8 1010.6 1009.0 0.0
11/02:30am 25.8 23.2 7.6 31 9.8 NNE 11 13 6 7 1010.8 1009.2 0.0
11/02:00am 26.7 23.6 7.4 29 10.4 NNE 13 17 7 9 1010.9 1009.3 0.0
11/01:30am 26.9 23.7 6.9 28 10.7 NNE 13 17 7 9 1011.1 1009.5 0.0
11/01:00am 27.4 24.2 6.9 27 11.0 NNE 13 15 7 8 1011.3 1009.7 0.0
11/12:30am 28.4 25.0 6.0 24 11.9 NE 13 19 7 10 1011.5 1009.9 0.0
11/12:00am 28.8 24.9 5.5 22 12.3 NE 15 17 8 9 1011.6 1010.0 0.0
 
Date/Time
EDT
Temp
°C
App
Temp
°C
Dew
Point
Rel
Hum
%
Delta-T
°C
Wind Press
QNH
hPa
Press
MSL
hPa
Rain
since 9 am
mm
Dir
 
Spd
km/h
Gust
km/h
Spd
kts
Gust
kts
10/11:30pm 29.2 25.7 5.3 22 12.6 NE 13 17 7 9 1011.7 1010.1 0.0
10/11:00pm 29.8 26.2 4.8 20 13.1 NE 13 17 7 9 1011.7 1010.1 0.0
10/10:30pm 30.7 27.0 4.3 18 13.8 NE 13 17 7 9 1011.8 1010.2 0.0
10/10:00pm 31.2 27.5 4.3 18 14.1 ENE 13 17 7 9 1011.7 1010.1 0.0
10/09:30pm 31.8 28.4 4.2 17 14.5 ENE 11 15 6 8 1011.5 1009.9 0.0
10/09:00pm 31.9 29.9 7.0 21 13.7 ENE 7 9 4 5 1011.3 1009.7 0.0
10/08:30pm 32.7 30.0 5.4 18 14.7 ENE 9 11 5 6 1011.2 1009.6 0.0
10/08:00pm 33.7 30.0 4.4 16 15.6 E 13 17 7 9 1010.9 1009.3 0.0
10/07:30pm 34.4 30.3 4.2 15 16.1 E 15 19 8 10 1010.7 1009.1 0.0
10/07:00pm 35.3 31.5 3.7 14 16.8 ENE 13 19 7 10 1010.4 1008.8 0.0
10/06:30pm 35.7 32.8 4.6 14 16.8 ESE 9 19 5 10 1010.3 1008.7 0.0
10/06:00pm 35.3 31.7 2.9 13 17.0 S 11 19 6 10 1010.3 1008.7 0.0
10/05:30pm 35.4 32.1 4.7 15 16.6 SE 11 22 6 12 1010.3 1008.7 0.0
10/05:00pm 37.0 33.1 3.2 12 18.0 E 13 20 7 11 1010.4 1008.8 0.0
10/04:30pm 35.1 31.8 4.7 15 16.4 SSE 11 15 6 8 1010.8 1009.2 0.0
10/04:00pm 35.3 32.3 6.2 16 16.1 S 11 20 6 11 1011.1 1009.5 0.0
10/03:30pm 34.1 29.4 5.0 16 15.7 SE 19 28 10 15 1011.5 1009.9 0.0
10/03:00pm 34.5 31.8 5.8 17 15.7 SSE 9 19 5 10 1011.8 1010.2 0.0
10/02:30pm 35.2 31.1 6.2 16 16.0 ESE 17 28 9 15 1012.5 1010.9 0.0
10/02:00pm 34.9 31.4 5.3 16 16.1 E 13 20 7 11 1013.0 1011.4 0.0
10/01:30pm 34.0 31.0 6.1 17 15.3 SE 11 24 6 13 1013.4 1011.8 0.0
10/01:00pm 33.7 31.2 6.4 18 15.0 SE 9 19 5 10 1013.8 1012.2 0.0
10/12:30pm 32.5 31.0 8.6 22 13.5 WSW 6 13 3 7 1014.2 1012.6 0.0
10/12:00pm 31.5 29.5 8.8 24 12.8 W 9 15 5 8 1014.7 1013.1 0.0
10/11:30am 30.8 29.0 9.6 27 12.1 NW 9 13 5 7 1014.9 1013.3 0.0
10/11:00am 31.0 29.5 10.4 28 11.9 NE 9 17 5 9 1015.1 1013.5 0.0
10/10:30am 29.6 27.3 10.5 30 11.0 NE 13 19 7 10 1015.3 1013.7 0.0
10/10:00am 28.7 25.3 10.6 32 10.4 NE 19 24 10 13 1015.2 1013.6 0.0
10/09:30am 27.3 22.9 10.4 34 9.6 ENE 24 28 13 15 1015.2 1013.6 0.0
10/09:00am 26.1 21.4 10.6 37 8.8 NE 26 35 14 19 1015.3 1013.7 0.0
10/08:30am 25.4 21.4 10.3 38 8.5 ENE 22 30 12 16 1015.3 1013.7 0.0
10/08:00am 24.1 21.7 10.1 41 7.8 E 13 19 7 10 1015.2 1013.6 0.0
10/07:30am 22.6 20.5 9.9 44 7.0 E 11 15 6 8 1014.9 1013.3 0.0
10/07:00am 21.4 19.3 9.6 47 6.4 ENE 11 13 6 7 1014.7 1013.1 0.0
10/06:30am 21.9 19.8 9.6 45 6.7 ENE 11 15 6 8 1014.5 1012.9 0.0
10/06:00am 22.7 20.7 10.0 44 7.0 E 11 17 6 9 1014.2 1012.6 0.0
10/05:30am 23.2 20.6 9.3 41 7.6 E 13 17 7 9 1013.9 1012.3 0.0
10/05:00am 23.7 21.1 9.3 40 7.9 ENE 13 15 7 8 1013.5 1011.9 0.0
10/04:30am 24.0 22.1 9.2 39 8.1 NE 9 13 5 7 1013.2 1011.6 0.0
10/04:00am 24.5 22.3 9.2 37 8.4 ENE 11 15 6 8 1013.1 1011.5 0.0
10/03:30am 25.4 22.7 9.0 35 9.0 NE 13 19 7 10 1013.1 1011.5 0.0
10/03:00am 26.0 22.5 8.9 34 9.4 NE 17 22 9 12 1013.1 1011.5 0.0
10/02:30am 26.0 23.0 9.2 34 9.3 NE 15 20 8 11 1013.3 1011.7 0.0
10/02:00am 25.9 23.3 9.3 35 9.2 NE 13 19 7 10 1013.5 1011.9 0.0
10/01:30am 26.2 23.6 9.2 34 9.4 NE 13 15 7 8 1014.1 1012.5 0.0
10/01:00am 26.9 23.8 9.0 32 9.9 ENE 15 20 8 11 1014.3 1012.7 0.0
10/12:30am 27.3 23.7 8.4 30 10.4 ENE 17 22 9 12 1014.4 1012.8 0.0
10/12:00am 27.8 24.0 7.5 27 11.0 ENE 17 20 9 11 1014.6 1013.0 0.0
 
Date/Time
EDT
Temp
°C
App
Temp
°C
Dew
Point
Rel
Hum
%
Delta-T
°C
Wind Press
QNH
hPa
Press
MSL
hPa
Rain
since 9 am
mm
Dir
 
Spd
km/h
Gust
km/h
Spd
kts
Gust
kts
09/11:30pm 28.0 24.5 7.0 26 11.3 NE 15 19 8 10 1014.8 1013.2 0.0
09/11:00pm 28.2 24.9 6.5 25 11.6 ENE 13 17 7 9 1015.0 1013.4 0.0
09/10:30pm 28.7 25.4 6.2 24 12.0 ENE 13 17 7 9 1015.2 1013.6 0.0
09/10:00pm 28.7 25.4 6.2 24 12.0 ENE 13 15 7 8 1015.0 1013.4 0.0
09/09:30pm 29.2 26.3 6.5 24 12.2 ENE 11 13 6 7 1014.8 1013.2 0.0
09/09:00pm 30.5 27.4 5.5 20 13.3 E 11 15 6 8 1014.7 1013.1 0.0
09/08:30pm 31.6 28.1 5.4 19 14.0 E 13 19 7 10 1014.6 1013.0 0.0
09/08:00pm 32.4 28.8 5.1 18 14.6 E 13 20 7 11 1014.6 1013.0 0.0
09/07:30pm 33.2 29.2 4.7 16 15.2 ESE 15 22 8 12 1014.5 1012.9 0.0
09/07:00pm 33.8 28.9 3.9 15 15.8 E 19 32 10 17 1014.2 1012.6 0.0
09/06:30pm 34.2 29.5 3.3 14 16.2 ESE 17 24 9 13 1014.0 1012.4 0.0
09/06:00pm 34.0 29.3 3.2 14 16.1 SE 17 26 9 14 1013.9 1012.3 0.0
09/05:30pm 35.5 30.5 4.8 15 16.6 E 20 33 11 18 1014.1 1012.5 0.0
09/05:00pm 35.4 30.4 3.5 13 16.9 E 19 32 10 17 1014.3 1012.7 0.0

Other Formats:

Comma delimited format used in spreadsheet applications
http://www.bom.gov.au/fwo/IDN60801/IDN60801.94711.axf

JavaScript Object Notation format (JSON) in row-major order
http://www.bom.gov.au/fwo/IDN60801/IDN60801.94711.json